sensor_id;sensor_type;location;lat;lon;timestamp;P1;durP1;ratioP1;P2;durP2;ratioP2
74100;SDS011;62462;52.530;21.682;2023-06-19T00:00:13;17.08;;;12.45;;
74100;SDS011;62462;52.530;21.682;2023-06-19T00:02:41;19.70;;;13.93;;
74100;SDS011;62462;52.530;21.682;2023-06-19T00:05:07;16.33;;;12.57;;
74100;SDS011;62462;52.530;21.682;2023-06-19T00:07:35;18.83;;;13.32;;
74100;SDS011;62462;52.530;21.682;2023-06-19T00:10:02;17.10;;;13.20;;
74100;SDS011;62462;52.530;21.682;2023-06-19T00:12:28;19.30;;;13.80;;
74100;SDS011;62462;52.530;21.682;2023-06-19T00:14:54;16.45;;;13.02;;
74100;SDS011;62462;52.530;21.682;2023-06-19T00:17:20;18.63;;;13.48;;
74100;SDS011;62462;52.530;21.682;2023-06-19T00:19:45;16.17;;;12.68;;
74100;SDS011;62462;52.530;21.682;2023-06-19T00:22:13;15.07;;;12.25;;
74100;SDS011;62462;52.530;21.682;2023-06-19T00:24:40;15.43;;;12.82;;
74100;SDS011;62462;52.530;21.682;2023-06-19T00:27:06;16.88;;;13.25;;
74100;SDS011;62462;52.530;21.682;2023-06-19T00:29:32;16.25;;;12.88;;
74100;SDS011;62462;52.530;21.682;2023-06-19T00:31:58;18.45;;;12.80;;
74100;SDS011;62462;52.530;21.682;2023-06-19T00:34:24;16.75;;;13.77;;
74100;SDS011;62462;52.530;21.682;2023-06-19T00:36:51;16.65;;;12.27;;
74100;SDS011;62462;52.530;21.682;2023-06-19T00:39:19;17.88;;;13.77;;
74100;SDS011;62462;52.530;21.682;2023-06-19T00:41:45;15.85;;;12.82;;
74100;SDS011;62462;52.530;21.682;2023-06-19T00:44:13;14.75;;;12.23;;
74100;SDS011;62462;52.530;21.682;2023-06-19T00:46:40;13.30;;;11.65;;
74100;SDS011;62462;52.530;21.682;2023-06-19T00:49:06;13.75;;;11.75;;
74100;SDS011;62462;52.530;21.682;2023-06-19T00:51:32;14.55;;;11.68;;
74100;SDS011;62462;52.530;21.682;2023-06-19T00:53:58;12.70;;;11.27;;
74100;SDS011;62462;52.530;21.682;2023-06-19T00:56:25;13.68;;;11.20;;
74100;SDS011;62462;52.530;21.682;2023-06-19T00:58:54;14.43;;;11.68;;
74100;SDS011;62462;52.530;21.682;2023-06-19T01:01:21;12.43;;;10.95;;
74100;SDS011;62462;52.530;21.682;2023-06-19T01:03:48;14.20;;;12.55;;
74100;SDS011;62462;52.530;21.682;2023-06-19T01:06:20;13.30;;;11.30;;
74100;SDS011;62462;52.530;21.682;2023-06-19T01:09:21;14.38;;;11.63;;
74100;SDS011;62462;52.530;21.682;2023-06-19T01:11:46;12.93;;;11.52;;
74100;SDS011;62462;52.530;21.682;2023-06-19T01:14:21;13.65;;;11.48;;
74100;SDS011;62462;52.530;21.682;2023-06-19T01:16:54;14.55;;;11.27;;
74100;SDS011;62462;52.530;21.682;2023-06-19T01:19:21;12.70;;;11.13;;
74100;SDS011;62462;52.530;21.682;2023-06-19T01:21:47;12.23;;;10.90;;
74100;SDS011;62462;52.530;21.682;2023-06-19T01:24:14;11.65;;;10.40;;
74100;SDS011;62462;52.530;21.682;2023-06-19T01:26:40;12.70;;;10.90;;
74100;SDS011;62462;52.530;21.682;2023-06-19T01:29:07;13.60;;;11.65;;
74100;SDS011;62462;52.530;21.682;2023-06-19T01:31:35;13.30;;;11.55;;
74100;SDS011;62462;52.530;21.682;2023-06-19T01:36:35;11.95;;;10.60;;
74100;SDS011;62462;52.530;21.682;2023-06-19T01:39:01;11.60;;;10.32;;
74100;SDS011;62462;52.530;21.682;2023-06-19T01:41:28;11.40;;;10.25;;
74100;SDS011;62462;52.530;21.682;2023-06-19T01:43:55;12.40;;;10.07;;
74100;SDS011;62462;52.530;21.682;2023-06-19T01:46:22;12.38;;;9.80;;
74100;SDS011;62462;52.530;21.682;2023-06-19T01:48:48;12.43;;;9.93;;
74100;SDS011;62462;52.530;21.682;2023-06-19T01:51:14;11.52;;;10.32;;
74100;SDS011;62462;52.530;21.682;2023-06-19T01:53:39;12.10;;;9.98;;
74100;SDS011;62462;52.530;21.682;2023-06-19T01:56:05;11.98;;;9.82;;
74100;SDS011;62462;52.530;21.682;2023-06-19T01:58:31;11.07;;;9.88;;
74100;SDS011;62462;52.530;21.682;2023-06-19T02:00:58;10.80;;;9.40;;
74100;SDS011;62462;52.530;21.682;2023-06-19T02:03:24;10.02;;;9.02;;
74100;SDS011;62462;52.530;21.682;2023-06-19T02:05:50;9.88;;;8.88;;
74100;SDS011;62462;52.530;21.682;2023-06-19T02:08:16;10.05;;;9.00;;
74100;SDS011;62462;52.530;21.682;2023-06-19T02:10:41;10.75;;;8.77;;
74100;SDS011;62462;52.530;21.682;2023-06-19T02:13:07;11.30;;;9.13;;
74100;SDS011;62462;52.530;21.682;2023-06-19T02:15:33;10.23;;;9.13;;
74100;SDS011;62462;52.530;21.682;2023-06-19T02:17:59;9.65;;;8.65;;
74100;SDS011;62462;52.530;21.682;2023-06-19T02:20:25;11.02;;;9.23;;
74100;SDS011;62462;52.530;21.682;2023-06-19T02:22:51;9.38;;;8.48;;
74100;SDS011;62462;52.530;21.682;2023-06-19T02:25:17;10.27;;;8.20;;
74100;SDS011;62462;52.530;21.682;2023-06-19T02:27:43;10.45;;;9.25;;
74100;SDS011;62462;52.530;21.682;2023-06-19T02:30:08;9.93;;;8.93;;
74100;SDS011;62462;52.530;21.682;2023-06-19T02:32:35;10.60;;;9.07;;
74100;SDS011;62462;52.530;21.682;2023-06-19T02:35:00;10.30;;;9.07;;
74100;SDS011;62462;52.530;21.682;2023-06-19T02:37:26;11.23;;;9.45;;
74100;SDS011;62462;52.530;21.682;2023-06-19T02:39:52;11.13;;;9.93;;
74100;SDS011;62462;52.530;21.682;2023-06-19T02:42:17;10.18;;;9.15;;
74100;SDS011;62462;52.530;21.682;2023-06-19T02:44:43;11.10;;;9.73;;
74100;SDS011;62462;52.530;21.682;2023-06-19T02:47:10;10.55;;;9.45;;
74100;SDS011;62462;52.530;21.682;2023-06-19T02:49:36;11.15;;;9.20;;
74100;SDS011;62462;52.530;21.682;2023-06-19T02:52:02;10.45;;;9.13;;
74100;SDS011;62462;52.530;21.682;2023-06-19T02:54:27;9.77;;;8.77;;
74100;SDS011;62462;52.530;21.682;2023-06-19T02:56:53;9.57;;;8.57;;
74100;SDS011;62462;52.530;21.682;2023-06-19T02:59:19;10.20;;;9.20;;
74100;SDS011;62462;52.530;21.682;2023-06-19T03:01:44;10.60;;;9.50;;
74100;SDS011;62462;52.530;21.682;2023-06-19T03:04:10;10.18;;;8.98;;
74100;SDS011;62462;52.530;21.682;2023-06-19T03:06:37;10.30;;;9.20;;
74100;SDS011;62462;52.530;21.682;2023-06-19T03:09:07;10.20;;;9.20;;
74100;SDS011;62462;52.530;21.682;2023-06-19T03:11:40;11.63;;;9.25;;
74100;SDS011;62462;52.530;21.682;2023-06-19T03:14:06;10.02;;;9.02;;
74100;SDS011;62462;52.530;21.682;2023-06-19T03:16:33;11.52;;;9.38;;
74100;SDS011;62462;52.530;21.682;2023-06-19T03:18:59;10.35;;;9.25;;
74100;SDS011;62462;52.530;21.682;2023-06-19T03:21:25;10.88;;;9.85;;
74100;SDS011;62462;52.530;21.682;2023-06-19T03:23:52;10.07;;;9.07;;
74100;SDS011;62462;52.530;21.682;2023-06-19T03:26:21;9.45;;;8.55;;
74100;SDS011;62462;52.530;21.682;2023-06-19T03:28:47;10.27;;;9.27;;
74100;SDS011;62462;52.530;21.682;2023-06-19T03:31:13;10.00;;;9.00;;
74100;SDS011;62462;52.530;21.682;2023-06-19T03:33:42;10.32;;;9.25;;
74100;SDS011;62462;52.530;21.682;2023-06-19T03:36:07;10.73;;;9.20;;
74100;SDS011;62462;52.530;21.682;2023-06-19T03:38:35;9.60;;;8.57;;
74100;SDS011;62462;52.530;21.682;2023-06-19T03:41:00;10.05;;;8.32;;
74100;SDS011;62462;52.530;21.682;2023-06-19T03:43:27;11.55;;;9.00;;
74100;SDS011;62462;52.530;21.682;2023-06-19T03:45:53;9.52;;;8.63;;
74100;SDS011;62462;52.530;21.682;2023-06-19T03:48:20;9.73;;;8.73;;
74100;SDS011;62462;52.530;21.682;2023-06-19T03:50:45;10.27;;;9.27;;
74100;SDS011;62462;52.530;21.682;2023-06-19T03:53:11;10.20;;;9.20;;
74100;SDS011;62462;52.530;21.682;2023-06-19T03:55:37;10.40;;;9.35;;
74100;SDS011;62462;52.530;21.682;2023-06-19T03:58:02;10.05;;;9.05;;
74100;SDS011;62462;52.530;21.682;2023-06-19T04:00:28;11.25;;;9.90;;
74100;SDS011;62462;52.530;21.682;2023-06-19T04:02:55;11.68;;;9.73;;
74100;SDS011;62462;52.530;21.682;2023-06-19T04:05:21;11.07;;;9.98;;
74100;SDS011;62462;52.530;21.682;2023-06-19T04:07:47;63.42;;;12.10;;
74100;SDS011;62462;52.530;21.682;2023-06-19T04:10:13;11.95;;;10.75;;
74100;SDS011;62462;52.530;21.682;2023-06-19T04:12:40;11.10;;;9.93;;
74100;SDS011;62462;52.530;21.682;2023-06-19T04:15:06;11.80;;;10.50;;
74100;SDS011;62462;52.530;21.682;2023-06-19T04:17:32;10.38;;;9.38;;
74100;SDS011;62462;52.530;21.682;2023-06-19T04:19:58;13.73;;;10.02;;
74100;SDS011;62462;52.530;21.682;2023-06-19T04:22:24;11.25;;;10.05;;
74100;SDS011;62462;52.530;21.682;2023-06-19T04:24:50;10.88;;;9.63;;
74100;SDS011;62462;52.530;21.682;2023-06-19T04:27:15;23.52;;;10.25;;
74100;SDS011;62462;52.530;21.682;2023-06-19T04:29:41;11.45;;;10.25;;
74100;SDS011;62462;52.530;21.682;2023-06-19T04:32:07;10.77;;;9.68;;
74100;SDS011;62462;52.530;21.682;2023-06-19T04:34:37;10.13;;;8.57;;
74100;SDS011;62462;52.530;21.682;2023-06-19T04:37:10;10.00;;;8.88;;
74100;SDS011;62462;52.530;21.682;2023-06-19T04:39:37;11.98;;;10.05;;
74100;SDS011;62462;52.530;21.682;2023-06-19T04:42:02;11.73;;;9.95;;
74100;SDS011;62462;52.530;21.682;2023-06-19T04:44:28;10.45;;;9.23;;
74100;SDS011;62462;52.530;21.682;2023-06-19T04:46:59;11.23;;;9.35;;
74100;SDS011;62462;52.530;21.682;2023-06-19T04:49:28;11.32;;;8.85;;
74100;SDS011;62462;52.530;21.682;2023-06-19T04:51:57;10.75;;;9.43;;
74100;SDS011;62462;52.530;21.682;2023-06-19T04:54:24;10.45;;;8.88;;
74100;SDS011;62462;52.530;21.682;2023-06-19T04:56:50;12.07;;;9.60;;
74100;SDS011;62462;52.530;21.682;2023-06-19T04:59:15;9.63;;;8.57;;
74100;SDS011;62462;52.530;21.682;2023-06-19T05:01:43;10.35;;;9.10;;
74100;SDS011;62462;52.530;21.682;2023-06-19T05:04:15;10.05;;;8.95;;
74100;SDS011;62462;52.530;21.682;2023-06-19T05:06:41;9.23;;;8.23;;
74100;SDS011;62462;52.530;21.682;2023-06-19T05:09:07;10.43;;;8.60;;
74100;SDS011;62462;52.530;21.682;2023-06-19T05:11:33;10.32;;;9.02;;
74100;SDS011;62462;52.530;21.682;2023-06-19T05:13:59;9.52;;;8.20;;
74100;SDS011;62462;52.530;21.682;2023-06-19T05:16:25;14.60;;;11.50;;
74100;SDS011;62462;52.530;21.682;2023-06-19T05:18:50;9.73;;;8.70;;
74100;SDS011;62462;52.530;21.682;2023-06-19T05:21:16;9.93;;;7.97;;
74100;SDS011;62462;52.530;21.682;2023-06-19T05:23:42;11.15;;;8.75;;
74100;SDS011;62462;52.530;21.682;2023-06-19T05:26:08;10.18;;;8.68;;
74100;SDS011;62462;52.530;21.682;2023-06-19T05:28:33;9.73;;;8.57;;
74100;SDS011;62462;52.530;21.682;2023-06-19T05:30:59;10.55;;;8.88;;
74100;SDS011;62462;52.530;21.682;2023-06-19T05:33:25;15.23;;;11.48;;
74100;SDS011;62462;52.530;21.682;2023-06-19T05:35:52;15.48;;;12.20;;
74100;SDS011;62462;52.530;21.682;2023-06-19T05:38:19;16.77;;;12.23;;
74100;SDS011;62462;52.530;21.682;2023-06-19T05:40:45;17.95;;;12.70;;
74100;SDS011;62462;52.530;21.682;2023-06-19T05:43:11;14.82;;;11.32;;
74100;SDS011;62462;52.530;21.682;2023-06-19T05:45:37;13.68;;;11.15;;
74100;SDS011;62462;52.530;21.682;2023-06-19T05:48:03;17.75;;;12.68;;
74100;SDS011;62462;52.530;21.682;2023-06-19T05:50:29;15.73;;;11.73;;
74100;SDS011;62462;52.530;21.682;2023-06-19T05:52:56;16.40;;;12.88;;
74100;SDS011;62462;52.530;21.682;2023-06-19T05:55:21;16.30;;;13.32;;
74100;SDS011;62462;52.530;21.682;2023-06-19T05:57:49;13.48;;;11.57;;
74100;SDS011;62462;52.530;21.682;2023-06-19T06:00:16;16.35;;;12.52;;
74100;SDS011;62462;52.530;21.682;2023-06-19T06:02:42;14.15;;;11.88;;
74100;SDS011;62462;52.530;21.682;2023-06-19T06:05:08;16.55;;;13.35;;
74100;SDS011;62462;52.530;21.682;2023-06-19T06:07:34;12.70;;;10.98;;
74100;SDS011;62462;52.530;21.682;2023-06-19T06:10:00;12.57;;;11.00;;
74100;SDS011;62462;52.530;21.682;2023-06-19T06:12:25;14.68;;;12.75;;
74100;SDS011;62462;52.530;21.682;2023-06-19T06:14:52;13.52;;;11.80;;
74100;SDS011;62462;52.530;21.682;2023-06-19T06:17:18;12.50;;;10.00;;
74100;SDS011;62462;52.530;21.682;2023-06-19T06:19:44;12.75;;;11.35;;
74100;SDS011;62462;52.530;21.682;2023-06-19T06:22:09;14.70;;;12.43;;
74100;SDS011;62462;52.530;21.682;2023-06-19T06:24:35;15.10;;;11.85;;
74100;SDS011;62462;52.530;21.682;2023-06-19T06:27:01;11.75;;;9.82;;
74100;SDS011;62462;52.530;21.682;2023-06-19T06:29:27;11.68;;;10.23;;
74100;SDS011;62462;52.530;21.682;2023-06-19T06:32:02;13.52;;;10.43;;
74100;SDS011;62462;52.530;21.682;2023-06-19T06:34:31;13.30;;;11.90;;
74100;SDS011;62462;52.530;21.682;2023-06-19T06:36:58;12.55;;;11.07;;
74100;SDS011;62462;52.530;21.682;2023-06-19T06:39:24;12.35;;;11.05;;
74100;SDS011;62462;52.530;21.682;2023-06-19T06:41:50;12.30;;;10.30;;
74100;SDS011;62462;52.530;21.682;2023-06-19T06:44:16;11.60;;;10.35;;
74100;SDS011;62462;52.530;21.682;2023-06-19T06:46:42;13.55;;;10.85;;
74100;SDS011;62462;52.530;21.682;2023-06-19T06:49:08;11.43;;;9.43;;
74100;SDS011;62462;52.530;21.682;2023-06-19T06:51:34;12.05;;;10.82;;
74100;SDS011;62462;52.530;21.682;2023-06-19T06:53:59;10.60;;;9.50;;
74100;SDS011;62462;52.530;21.682;2023-06-19T06:56:25;9.38;;;8.35;;
74100;SDS011;62462;52.530;21.682;2023-06-19T06:58:51;9.18;;;8.27;;
74100;SDS011;62462;52.530;21.682;2023-06-19T07:01:17;10.70;;;9.27;;
74100;SDS011;62462;52.530;21.682;2023-06-19T07:03:42;10.25;;;9.15;;
74100;SDS011;62462;52.530;21.682;2023-06-19T07:06:08;8.63;;;7.80;;
74100;SDS011;62462;52.530;21.682;2023-06-19T07:08:34;9.27;;;8.38;;
74100;SDS011;62462;52.530;21.682;2023-06-19T07:11:00;8.93;;;8.02;;
74100;SDS011;62462;52.530;21.682;2023-06-19T07:13:26;8.52;;;7.70;;
74100;SDS011;62462;52.530;21.682;2023-06-19T07:15:52;8.65;;;7.75;;
74100;SDS011;62462;52.530;21.682;2023-06-19T07:18:18;8.55;;;7.68;;
74100;SDS011;62462;52.530;21.682;2023-06-19T07:20:44;10.50;;;9.48;;
74100;SDS011;62462;52.530;21.682;2023-06-19T07:23:10;9.85;;;8.85;;
74100;SDS011;62462;52.530;21.682;2023-06-19T07:25:36;9.93;;;9.00;;
74100;SDS011;62462;52.530;21.682;2023-06-19T07:28:02;9.48;;;8.48;;
74100;SDS011;62462;52.530;21.682;2023-06-19T07:30:30;9.57;;;8.68;;
74100;SDS011;62462;52.530;21.682;2023-06-19T07:32:56;9.95;;;8.70;;
74100;SDS011;62462;52.530;21.682;2023-06-19T07:35:22;9.30;;;8.30;;
74100;SDS011;62462;52.530;21.682;2023-06-19T07:37:48;9.88;;;8.90;;
74100;SDS011;62462;52.530;21.682;2023-06-19T07:40:14;8.60;;;7.80;;
74100;SDS011;62462;52.530;21.682;2023-06-19T07:42:40;7.53;;;6.82;;
74100;SDS011;62462;52.530;21.682;2023-06-19T07:45:06;7.35;;;6.65;;
74100;SDS011;62462;52.530;21.682;2023-06-19T07:47:32;6.32;;;5.72;;
74100;SDS011;62462;52.530;21.682;2023-06-19T07:49:58;8.30;;;7.50;;
74100;SDS011;62462;52.530;21.682;2023-06-19T07:52:24;7.95;;;7.15;;
74100;SDS011;62462;52.530;21.682;2023-06-19T07:54:56;6.88;;;6.28;;
74100;SDS011;62462;52.530;21.682;2023-06-19T07:57:23;7.35;;;6.68;;
74100;SDS011;62462;52.530;21.682;2023-06-19T07:59:50;8.05;;;7.25;;
74100;SDS011;62462;52.530;21.682;2023-06-19T08:02:17;7.00;;;6.30;;
74100;SDS011;62462;52.530;21.682;2023-06-19T08:04:44;7.20;;;6.50;;
74100;SDS011;62462;52.530;21.682;2023-06-19T08:07:10;8.50;;;7.60;;
74100;SDS011;62462;52.530;21.682;2023-06-19T08:09:36;7.95;;;7.18;;
74100;SDS011;62462;52.530;21.682;2023-06-19T08:12:02;7.40;;;6.70;;
74100;SDS011;62462;52.530;21.682;2023-06-19T08:14:28;7.30;;;6.53;;
74100;SDS011;62462;52.530;21.682;2023-06-19T08:16:54;6.60;;;6.00;;
74100;SDS011;62462;52.530;21.682;2023-06-19T08:19:20;6.05;;;5.55;;
74100;SDS011;62462;52.530;21.682;2023-06-19T08:21:46;8.65;;;5.13;;
74100;SDS011;62462;52.530;21.682;2023-06-19T08:24:12;6.68;;;5.72;;
74100;SDS011;62462;52.530;21.682;2023-06-19T08:26:38;6.65;;;5.93;;
74100;SDS011;62462;52.530;21.682;2023-06-19T08:29:04;5.72;;;5.22;;
74100;SDS011;62462;52.530;21.682;2023-06-19T08:31:30;6.57;;;5.43;;
74100;SDS011;62462;52.530;21.682;2023-06-19T08:33:56;6.38;;;5.72;;
74100;SDS011;62462;52.530;21.682;2023-06-19T08:36:22;5.72;;;5.20;;
74100;SDS011;62462;52.530;21.682;2023-06-19T08:38:48;5.78;;;5.28;;
74100;SDS011;62462;52.530;21.682;2023-06-19T08:41:18;5.97;;;5.38;;
74100;SDS011;62462;52.530;21.682;2023-06-19T08:43:45;5.68;;;5.15;;
74100;SDS011;62462;52.530;21.682;2023-06-19T08:46:14;5.72;;;5.22;;
74100;SDS011;62462;52.530;21.682;2023-06-19T08:48:43;5.65;;;5.15;;
74100;SDS011;62462;52.530;21.682;2023-06-19T08:51:10;13.70;;;5.22;;
74100;SDS011;62462;52.530;21.682;2023-06-19T08:53:43;6.43;;;5.53;;
74100;SDS011;62462;52.530;21.682;2023-06-19T08:56:33;5.65;;;5.13;;
74100;SDS011;62462;52.530;21.682;2023-06-19T09:01:47;5.18;;;4.68;;
74100;SDS011;62462;52.530;21.682;2023-06-19T09:04:21;5.05;;;4.63;;
74100;SDS011;62462;52.530;21.682;2023-06-19T09:06:51;6.38;;;4.32;;
74100;SDS011;62462;52.530;21.682;2023-06-19T09:09:21;4.80;;;4.40;;
74100;SDS011;62462;52.530;21.682;2023-06-19T09:12:01;4.45;;;4.10;;
74100;SDS011;62462;52.530;21.682;2023-06-19T09:14:37;5.50;;;4.18;;
74100;SDS011;62462;52.530;21.682;2023-06-19T09:17:05;5.10;;;4.70;;
74100;SDS011;62462;52.530;21.682;2023-06-19T09:22:12;5.40;;;4.80;;
74100;SDS011;62462;52.530;21.682;2023-06-19T09:24:38;4.60;;;4.20;;
74100;SDS011;62462;52.530;21.682;2023-06-19T09:27:06;5.13;;;4.35;;
74100;SDS011;62462;52.530;21.682;2023-06-19T09:29:39;6.25;;;4.22;;
74100;SDS011;62462;52.530;21.682;2023-06-19T09:32:22;5.65;;;4.43;;
74100;SDS011;62462;52.530;21.682;2023-06-19T09:34:50;4.72;;;4.32;;
74100;SDS011;62462;52.530;21.682;2023-06-19T09:37:24;4.10;;;3.80;;
74100;SDS011;62462;52.530;21.682;2023-06-19T09:39:55;4.80;;;4.30;;
74100;SDS011;62462;52.530;21.682;2023-06-19T09:44:59;4.43;;;4.00;;
74100;SDS011;62462;52.530;21.682;2023-06-19T09:47:30;4.50;;;4.10;;
74100;SDS011;62462;52.530;21.682;2023-06-19T09:50:04;4.20;;;3.80;;
74100;SDS011;62462;52.530;21.682;2023-06-19T09:52:31;4.30;;;3.90;;
74100;SDS011;62462;52.530;21.682;2023-06-19T09:54:58;3.85;;;3.55;;
74100;SDS011;62462;52.530;21.682;2023-06-19T09:57:33;4.20;;;3.80;;
74100;SDS011;62462;52.530;21.682;2023-06-19T10:00:00;4.00;;;3.70;;
74100;SDS011;62462;52.530;21.682;2023-06-19T10:02:35;4.30;;;3.90;;
74100;SDS011;62462;52.530;21.682;2023-06-19T10:05:01;4.82;;;3.80;;
74100;SDS011;62462;52.530;21.682;2023-06-19T10:07:33;5.80;;;4.43;;
74100;SDS011;62462;52.530;21.682;2023-06-19T10:10:22;4.32;;;3.92;;
74100;SDS011;62462;52.530;21.682;2023-06-19T10:12:49;4.30;;;3.90;;
74100;SDS011;62462;52.530;21.682;2023-06-19T10:17:52;3.85;;;3.55;;
74100;SDS011;62462;52.530;21.682;2023-06-19T10:20:22;4.95;;;3.92;;
74100;SDS011;62462;52.530;21.682;2023-06-19T10:23:03;4.28;;;3.88;;
74100;SDS011;62462;52.530;21.682;2023-06-19T10:25:38;4.35;;;3.95;;
74100;SDS011;62462;52.530;21.682;2023-06-19T10:28:16;4.10;;;3.80;;
74100;SDS011;62462;52.530;21.682;2023-06-19T10:30:57;3.87;;;3.57;;
74100;SDS011;62462;52.530;21.682;2023-06-19T10:33:31;3.90;;;3.50;;
74100;SDS011;62462;52.530;21.682;2023-06-19T10:36:00;3.50;;;3.20;;
74100;SDS011;62462;52.530;21.682;2023-06-19T10:38:38;5.97;;;3.70;;
74100;SDS011;62462;52.530;21.682;2023-06-19T10:41:03;3.95;;;3.65;;
74100;SDS011;62462;52.530;21.682;2023-06-19T10:43:29;5.47;;;3.65;;
74100;SDS011;62462;52.530;21.682;2023-06-19T10:45:57;4.10;;;3.60;;
74100;SDS011;62462;52.530;21.682;2023-06-19T10:48:24;3.38;;;3.17;;
74100;SDS011;62462;52.530;21.682;2023-06-19T10:50:50;3.55;;;3.10;;
74100;SDS011;62462;52.530;21.682;2023-06-19T10:53:30;3.33;;;3.08;;
74100;SDS011;62462;52.530;21.682;2023-06-19T10:55:58;3.28;;;3.00;;
74100;SDS011;62462;52.530;21.682;2023-06-19T10:58:25;3.13;;;2.83;;
74100;SDS011;62462;52.530;21.682;2023-06-19T11:00:52;3.85;;;3.20;;
74100;SDS011;62462;52.530;21.682;2023-06-19T11:03:20;3.92;;;3.58;;
74100;SDS011;62462;52.530;21.682;2023-06-19T11:05:47;3.65;;;3.35;;
74100;SDS011;62462;52.530;21.682;2023-06-19T11:08:20;4.57;;;3.60;;
74100;SDS011;62462;52.530;21.682;2023-06-19T11:10:47;3.65;;;3.33;;
74100;SDS011;62462;52.530;21.682;2023-06-19T11:13:14;3.60;;;3.30;;
74100;SDS011;62462;52.530;21.682;2023-06-19T11:15:41;3.78;;;3.47;;
74100;SDS011;62462;52.530;21.682;2023-06-19T11:18:07;3.70;;;3.40;;
74100;SDS011;62462;52.530;21.682;2023-06-19T11:20:46;4.18;;;3.47;;
74100;SDS011;62462;52.530;21.682;2023-06-19T11:23:15;3.65;;;3.33;;
74100;SDS011;62462;52.530;21.682;2023-06-19T11:25:42;3.35;;;3.05;;
74100;SDS011;62462;52.530;21.682;2023-06-19T11:28:14;3.42;;;3.13;;
74100;SDS011;62462;52.530;21.682;2023-06-19T11:30:47;4.13;;;3.78;;
74100;SDS011;62462;52.530;21.682;2023-06-19T11:33:18;4.25;;;3.80;;
74100;SDS011;62462;52.530;21.682;2023-06-19T11:35:48;4.03;;;3.63;;
74100;SDS011;62462;52.530;21.682;2023-06-19T11:38:18;4.82;;;3.50;;
74100;SDS011;62462;52.530;21.682;2023-06-19T11:40:45;3.22;;;3.00;;
74100;SDS011;62462;52.530;21.682;2023-06-19T11:43:12;9.07;;;3.42;;
74100;SDS011;62462;52.530;21.682;2023-06-19T11:45:48;3.63;;;3.33;;
74100;SDS011;62462;52.530;21.682;2023-06-19T11:48:21;3.80;;;3.50;;
74100;SDS011;62462;52.530;21.682;2023-06-19T11:50:50;3.85;;;3.50;;
74100;SDS011;62462;52.530;21.682;2023-06-19T11:53:17;3.30;;;3.00;;
74100;SDS011;62462;52.530;21.682;2023-06-19T11:55:43;3.60;;;3.30;;
74100;SDS011;62462;52.530;21.682;2023-06-19T11:58:09;4.03;;;3.72;;
74100;SDS011;62462;52.530;21.682;2023-06-19T12:00:38;3.83;;;3.53;;
74100;SDS011;62462;52.530;21.682;2023-06-19T12:03:04;3.50;;;3.20;;
74100;SDS011;62462;52.530;21.682;2023-06-19T12:05:30;3.60;;;3.30;;
74100;SDS011;62462;52.530;21.682;2023-06-19T12:07:56;3.47;;;3.22;;
74100;SDS011;62462;52.530;21.682;2023-06-19T12:10:22;4.10;;;3.10;;
74100;SDS011;62462;52.530;21.682;2023-06-19T12:12:48;3.50;;;3.20;;
74100;SDS011;62462;52.530;21.682;2023-06-19T12:15:13;3.70;;;3.30;;
74100;SDS011;62462;52.530;21.682;2023-06-19T12:17:40;3.40;;;3.10;;
74100;SDS011;62462;52.530;21.682;2023-06-19T12:20:06;3.50;;;3.20;;
74100;SDS011;62462;52.530;21.682;2023-06-19T12:22:33;3.80;;;3.50;;
74100;SDS011;62462;52.530;21.682;2023-06-19T12:25:00;6.15;;;3.35;;
74100;SDS011;62462;52.530;21.682;2023-06-19T12:27:26;4.40;;;4.00;;
74100;SDS011;62462;52.530;21.682;2023-06-19T12:29:52;4.10;;;3.80;;
74100;SDS011;62462;52.530;21.682;2023-06-19T12:32:18;5.22;;;3.92;;
74100;SDS011;62462;52.530;21.682;2023-06-19T12:34:46;4.32;;;3.92;;
74100;SDS011;62462;52.530;21.682;2023-06-19T12:37:15;4.40;;;4.00;;
74100;SDS011;62462;52.530;21.682;2023-06-19T12:39:44;4.72;;;4.30;;
74100;SDS011;62462;52.530;21.682;2023-06-19T12:42:10;4.25;;;3.85;;
74100;SDS011;62462;52.530;21.682;2023-06-19T12:44:39;3.85;;;3.55;;
74100;SDS011;62462;52.530;21.682;2023-06-19T12:47:07;5.65;;;3.92;;
74100;SDS011;62462;52.530;21.682;2023-06-19T12:49:33;6.25;;;3.88;;
74100;SDS011;62462;52.530;21.682;2023-06-19T12:51:59;4.35;;;3.95;;
74100;SDS011;62462;52.530;21.682;2023-06-19T12:54:25;4.72;;;4.22;;
74100;SDS011;62462;52.530;21.682;2023-06-19T12:56:53;4.22;;;3.90;;
74100;SDS011;62462;52.530;21.682;2023-06-19T12:59:19;3.80;;;3.50;;
74100;SDS011;62462;52.530;21.682;2023-06-19T13:01:45;5.72;;;3.88;;
74100;SDS011;62462;52.530;21.682;2023-06-19T13:04:11;4.45;;;3.67;;
74100;SDS011;62462;52.530;21.682;2023-06-19T13:06:38;4.35;;;3.95;;
74100;SDS011;62462;52.530;21.682;2023-06-19T13:09:05;4.30;;;3.80;;
74100;SDS011;62462;52.530;21.682;2023-06-19T13:11:31;4.03;;;3.72;;
74100;SDS011;62462;52.530;21.682;2023-06-19T13:13:59;4.20;;;3.90;;
74100;SDS011;62462;52.530;21.682;2023-06-19T13:16:28;3.70;;;3.40;;
74100;SDS011;62462;52.530;21.682;2023-06-19T13:18:56;4.05;;;3.70;;
74100;SDS011;62462;52.530;21.682;2023-06-19T13:21:22;4.18;;;3.80;;
74100;SDS011;62462;52.530;21.682;2023-06-19T13:23:48;6.32;;;3.65;;
74100;SDS011;62462;52.530;21.682;2023-06-19T13:26:14;3.83;;;3.53;;
74100;SDS011;62462;52.530;21.682;2023-06-19T13:28:40;3.40;;;3.10;;
74100;SDS011;62462;52.530;21.682;2023-06-19T13:31:06;4.38;;;3.97;;
74100;SDS011;62462;52.530;21.682;2023-06-19T13:33:32;3.40;;;3.10;;
74100;SDS011;62462;52.530;21.682;2023-06-19T13:35:58;4.43;;;3.60;;
74100;SDS011;62462;52.530;21.682;2023-06-19T13:38:24;3.80;;;3.50;;
74100;SDS011;62462;52.530;21.682;2023-06-19T13:40:52;3.20;;;3.00;;
74100;SDS011;62462;52.530;21.682;2023-06-19T13:43:17;3.50;;;3.20;;
74100;SDS011;62462;52.530;21.682;2023-06-19T13:45:45;3.90;;;3.60;;
74100;SDS011;62462;52.530;21.682;2023-06-19T13:48:11;4.25;;;3.38;;
74100;SDS011;62462;52.530;21.682;2023-06-19T13:50:37;4.03;;;3.40;;
74100;SDS011;62462;52.530;21.682;2023-06-19T13:53:02;3.30;;;3.00;;
74100;SDS011;62462;52.530;21.682;2023-06-19T13:55:28;3.55;;;3.25;;
74100;SDS011;62462;52.530;21.682;2023-06-19T13:57:54;3.40;;;3.10;;
74100;SDS011;62462;52.530;21.682;2023-06-19T14:00:20;2.90;;;2.70;;
74100;SDS011;62462;52.530;21.682;2023-06-19T14:02:46;3.22;;;2.92;;
74100;SDS011;62462;52.530;21.682;2023-06-19T14:05:12;3.90;;;3.00;;
74100;SDS011;62462;52.530;21.682;2023-06-19T14:07:41;5.57;;;2.78;;
74100;SDS011;62462;52.530;21.682;2023-06-19T14:10:08;3.22;;;3.00;;
74100;SDS011;62462;52.530;21.682;2023-06-19T14:12:34;3.22;;;2.92;;
74100;SDS011;62462;52.530;21.682;2023-06-19T14:15:00;3.50;;;3.20;;
74100;SDS011;62462;52.530;21.682;2023-06-19T14:17:26;3.45;;;3.20;;
74100;SDS011;62462;52.530;21.682;2023-06-19T14:19:52;3.38;;;3.08;;
74100;SDS011;62462;52.530;21.682;2023-06-19T14:22:20;4.38;;;2.90;;
74100;SDS011;62462;52.530;21.682;2023-06-19T14:24:46;3.50;;;3.20;;
74100;SDS011;62462;52.530;21.682;2023-06-19T14:27:12;3.10;;;2.80;;
74100;SDS011;62462;52.530;21.682;2023-06-19T14:29:38;5.55;;;3.22;;
74100;SDS011;62462;52.530;21.682;2023-06-19T14:32:04;3.00;;;2.70;;
74100;SDS011;62462;52.530;21.682;2023-06-19T14:34:30;3.50;;;3.20;;
74100;SDS011;62462;52.530;21.682;2023-06-19T14:36:56;3.47;;;2.85;;
74100;SDS011;62462;52.530;21.682;2023-06-19T14:39:22;3.53;;;3.05;;